PDT,Max TemperatureF,Mean TemperatureF,Min TemperatureF,Max Dew PointF,MeanDew PointF,Min DewpointF,Max Humidity, Mean Humidity, Min Humidity, Max Sea Level PressureIn, Mean Sea Level PressureIn, Min Sea Level PressureIn, Max VisibilityMiles, Mean VisibilityMiles, Min VisibilityMiles, Max Wind SpeedMPH, Mean Wind SpeedMPH, Max Gust SpeedMPH,PrecipitationIn, CloudCover, Events, WindDirDegrees
2013-4-1,55,50,46,54,49,46,100,99,86,30.22,30.15,30.05,10,5,0,8,3,,0.00,6,Fog,314
2013-4-2,51,48,46,49,48,46,100,99,93,30.25,30.20,30.16,10,5,0,10,3,,0.02,8,Fog,296
2013-4-3,51,46,42,49,46,43,100,99,89,30.18,30.09,29.92,10,4,0,10,2,,0.00,7,Fog-Rain,243
2013-4-4,57,52,48,56,53,48,100,94,80,30.08,29.95,29.84,10,7,1,22,9,29,0.95,8,Rain,199
2013-4-5,57,53,51,54,51,49,100,95,83,30.14,30.10,30.06,10,8,4,18,9,25,0.09,8,Rain,203
2013-4-6,57,53,51,52,51,47,100,93,74,30.19,30.12,30.06,10,6,2,13,6,22,0.36,7,Rain,197
2013-4-7,53,47,42,52,47,39,100,93,80,30.13,29.99,29.81,10,6,2,15,8,17,0.78,8,Rain,212
2013-4-8,55,46,37,43,40,36,96,79,62,30.24,30.17,30.00,10,10,10,23,11,118,0.00,2,,8
2013-4-9,57,45,35,48,43,35,100,88,67,30.33,30.29,30.25,10,10,6,17,5,24,0.00,1,,344
2013-4-10,55,46,39,50,46,38,100,94,83,30.35,30.30,30.25,10,8,2,18,5,25,0.01,5,,331
2013-4-11,57,52,46,48,45,43,100,86,59,30.29,30.18,30.06,10,8,3,21,7,32,0.00,5,,343
2013-4-12,54,48,45,46,44,43,93,86,76,30.08,30.06,30.02,10,10,10,18,5,,0.00,5,,325
2013-4-13,53,48,44,47,41,37,100,77,57,30.16,30.11,30.05,10,9,2,22,8,31,0.00,6,,356
2013-4-14,50,42,36,40,38,35,97,80,63,30.16,30.07,29.98,10,10,10,14,3,,0.00,6,,334
2013-4-15,51,44,36,40,38,35,97,79,63,30.16,30.07,30.01,10,10,5,21,9,30,0.03,5,Rain,5
2013-4-16,55,43,32,43,38,31,96,76,54,30.37,30.28,30.17,10,10,9,25,9,34,0.00,1,,8
2013-4-17,57,44,33,43,39,32,97,79,57,30.43,30.41,30.35,10,10,8,20,6,30,0.01,0,,1
2013-4-18,55,46,37,46,42,36,100,87,69,30.43,30.40,30.36,10,10,9,21,4,28,0.00,3,,349
2013-4-19,55,50,46,50,47,44,100,92,83,30.40,30.36,30.31,10,10,5,20,5,28,0.00,5,,329
2013-4-20,57,50,42,48,45,43,100,93,72,30.35,30.29,30.24,10,7,0,20,6,29,0.00,5,Fog,347
2013-4-21,64,54,45,47,45,44,100,83,50,30.25,30.21,30.18,10,10,7,18,7,29,0.00,4,,352
2013-4-22,68,56,44,49,45,42,100,89,39,30.19,30.11,30.00,10,5,0,17,3,21,0.00,4,Fog,244
2013-4-23,77,60,45,42,33,26,90,41,17,30.02,29.97,29.91,10,10,8,18,8,26,0.00,0,,28
2013-4-24,79,57,39,48,41,32,97,69,22,29.97,29.92,29.86,10,10,7,15,5,23,0.00,1,,242
2013-4-25,53,48,45,46,45,44,100,87,77,30.19,30.09,29.98,10,9,4,17,7,,0.00,8,,317
2013-4-26,51,48,46,47,46,45,100,93,87,30.30,30.25,30.16,10,9,2,7,3,,0.00,8,,313
2013-4-27,54,47,41,47,45,39,100,96,77,30.34,30.28,30.25,10,5,0,14,4,,0.01,6,Fog,325
2013-4-28,59,51,45,49,45,43,97,85,72,30.28,30.22,30.16,10,10,10,20,5,26,0.00,3,,333
2013-4-29,61,51,42,49,44,40,100,89,62,30.17,30.13,30.09,10,7,0,23,4,30,0.00,3,Fog,3
2013-4-30,60,47,35,42,37,34,100,74,42,30.19,30.14,30.08,10,10,8,23,4,34,0.00,0,,2